createdAt,value
2018-01-24T00:01:09.083Z,11.10
2018-01-24T00:03:37.391Z,13.02
2018-01-24T00:06:05.481Z,13.18
2018-01-24T00:08:33.568Z,13.43
2018-01-24T00:11:01.605Z,11.88
2018-01-24T00:13:29.802Z,12.90
2018-01-24T00:15:57.977Z,9.52
2018-01-24T00:18:26.063Z,10.10
2018-01-24T00:20:54.434Z,17.85
2018-01-24T00:23:23.243Z,16.37
2018-01-24T00:25:51.538Z,9.70
2018-01-24T00:28:19.820Z,14.50
2018-01-24T00:30:48.138Z,11.77
2018-01-24T00:33:17.298Z,18.08
2018-01-24T00:35:45.675Z,15.07
2018-01-24T00:38:13.835Z,12.00
2018-01-24T00:40:42.143Z,13.73
2018-01-24T00:43:10.340Z,15.40
2018-01-24T00:45:38.614Z,14.52
2018-01-24T00:48:06.658Z,12.63
2018-01-24T00:50:34.800Z,12.00
2018-01-24T00:53:03.041Z,13.70
2018-01-24T00:55:31.203Z,17.62
2018-01-24T00:57:59.395Z,18.98
2018-01-24T01:00:27.885Z,12.23
2018-01-24T01:02:56.301Z,15.13
2018-01-24T01:05:24.620Z,16.80
2018-01-24T01:07:52.747Z,18.17
2018-01-24T01:10:21.118Z,16.62
2018-01-24T01:12:49.303Z,18.90
2018-01-24T01:15:17.579Z,16.87
2018-01-24T01:17:45.661Z,19.30
2018-01-24T01:20:13.955Z,16.23
2018-01-24T01:22:42.055Z,16.42
2018-01-24T01:25:10.199Z,20.83
2018-01-24T01:27:38.239Z,25.37
2018-01-24T01:30:06.441Z,24.60
2018-01-24T01:32:34.741Z,18.45
2018-01-24T01:35:03.020Z,14.57
2018-01-24T01:37:31.200Z,17.27
2018-01-24T01:39:59.477Z,25.73
2018-01-24T01:42:27.718Z,19.52
2018-01-24T01:44:55.938Z,15.40
2018-01-24T01:47:24.340Z,19.87
2018-01-24T01:49:52.697Z,14.80
2018-01-24T01:52:20.993Z,15.57
2018-01-24T01:54:49.335Z,14.55
2018-01-24T01:57:17.456Z,13.62
2018-01-24T01:59:45.736Z,12.63
2018-01-24T02:02:13.745Z,19.40
2018-01-24T02:04:41.835Z,17.77
2018-01-24T02:07:09.885Z,18.15
2018-01-24T02:09:37.980Z,18.15
2018-01-24T02:12:06.000Z,12.85
2018-01-24T02:14:34.134Z,12.07
2018-01-24T02:17:02.254Z,19.05
2018-01-24T02:19:30.383Z,14.27
2018-01-24T02:21:58.574Z,15.98
2018-01-24T02:24:26.783Z,14.05
2018-01-24T02:26:55.020Z,10.50
2018-01-24T02:29:23.179Z,20.05
2018-01-24T02:31:51.347Z,11.45
2018-01-24T02:34:19.440Z,12.00
2018-01-24T02:36:47.416Z,16.12
2018-01-24T02:39:16.422Z,17.15
2018-01-24T02:41:44.470Z,13.32
2018-01-24T02:44:12.447Z,10.57
2018-01-24T02:46:40.538Z,17.90
2018-01-24T02:49:08.478Z,13.30
2018-01-24T02:51:36.604Z,19.90
2018-01-24T02:54:04.536Z,11.77
2018-01-24T02:56:32.616Z,13.10
2018-01-24T02:59:00.772Z,11.73
2018-01-24T03:01:28.855Z,14.27
2018-01-24T03:03:56.854Z,12.43
2018-01-24T03:06:25.040Z,13.68
2018-01-24T03:08:53.117Z,10.80
2018-01-24T03:11:21.323Z,14.07
2018-01-24T03:13:49.381Z,12.37
2018-01-24T03:16:17.477Z,8.93
2018-01-24T03:18:45.500Z,10.38
2018-01-24T03:21:13.606Z,11.23
2018-01-24T03:23:41.640Z,8.15
2018-01-24T03:26:09.677Z,15.75
2018-01-24T03:28:37.620Z,15.13
2018-01-24T03:31:05.644Z,13.43
2018-01-24T03:33:33.901Z,11.43
2018-01-24T03:36:02.058Z,10.48
2018-01-24T03:38:30.236Z,13.95
2018-01-24T03:40:58.360Z,14.55
2018-01-24T03:43:26.514Z,16.23
2018-01-24T03:45:54.786Z,15.50
2018-01-24T03:48:22.776Z,15.50
2018-01-24T03:50:50.819Z,13.80
2018-01-24T03:53:18.841Z,12.02
2018-01-24T03:55:46.945Z,10.52
2018-01-24T03:58:14.920Z,10.60
2018-01-24T04:00:43.015Z,10.18
2018-01-24T04:03:10.989Z,11.75
2018-01-24T04:05:39.098Z,14.40
2018-01-24T04:08:07.082Z,16.02
2018-01-24T04:10:35.238Z,14.27
2018-01-24T04:13:03.418Z,10.45
2018-01-24T04:15:31.635Z,12.45
2018-01-24T04:17:59.789Z,9.43
2018-01-24T04:20:27.977Z,10.25
2018-01-24T04:22:56.197Z,10.55
2018-01-24T04:25:24.321Z,17.27
2018-01-24T04:27:52.282Z,13.05
2018-01-24T04:30:20.464Z,17.23
2018-01-24T04:32:48.441Z,13.18
2018-01-24T04:35:16.528Z,12.02
2018-01-24T04:37:44.500Z,15.50
2018-01-24T04:40:12.561Z,12.18
2018-01-24T04:42:40.504Z,13.80
2018-01-24T04:45:08.503Z,13.62
2018-01-24T04:47:36.602Z,13.95
2018-01-24T04:50:04.769Z,15.73
2018-01-24T04:52:32.929Z,12.37
2018-01-24T04:55:01.051Z,14.00
2018-01-24T04:57:29.241Z,11.40
2018-01-24T04:59:57.314Z,19.23
2018-01-24T05:02:25.426Z,13.60
2018-01-24T05:04:53.414Z,10.73
2018-01-24T05:07:21.483Z,15.15
2018-01-24T05:09:49.463Z,15.50
2018-01-24T05:12:17.564Z,8.50
2018-01-24T05:14:45.541Z,10.25
2018-01-24T05:17:13.633Z,8.18
2018-01-24T05:19:41.669Z,7.93
2018-01-24T05:22:09.730Z,12.13
2018-01-24T05:24:38.100Z,10.05
2018-01-24T05:27:06.206Z,14.23
2018-01-24T05:29:34.379Z,16.02
2018-01-24T05:32:02.585Z,13.18
2018-01-24T05:34:30.761Z,15.25
2018-01-24T05:36:58.803Z,19.98
2018-01-24T05:39:26.806Z,13.65
2018-01-24T05:41:54.858Z,15.48
2018-01-24T05:44:22.863Z,11.15
2018-01-24T05:46:50.980Z,13.10
2018-01-24T05:49:18.936Z,16.20
2018-01-24T05:51:47.071Z,20.42
2018-01-24T05:54:15.056Z,24.17
2018-01-24T05:56:43.137Z,19.75
2018-01-24T05:59:11.114Z,16.58
2018-01-24T06:01:39.263Z,18.95
2018-01-24T06:04:07.493Z,13.57
2018-01-24T06:06:35.861Z,16.08
2018-01-24T06:09:03.916Z,11.27
2018-01-24T06:11:32.046Z,11.95
2018-01-24T06:14:00.132Z,15.60
2018-01-24T06:16:28.194Z,13.32
2018-01-24T06:18:56.187Z,16.55
2018-01-24T06:21:24.223Z,23.12
2018-01-24T06:23:52.178Z,17.62
2018-01-24T06:26:20.208Z,18.15
2018-01-24T06:28:48.243Z,22.62
2018-01-24T06:31:16.287Z,20.05
2018-01-24T06:33:44.236Z,30.20
2018-01-24T06:36:12.294Z,23.52
2018-01-24T06:38:41.396Z,22.45
2018-01-24T06:41:09.562Z,24.27
2018-01-24T06:43:37.840Z,24.70
2018-01-24T06:46:05.914Z,20.12
2018-01-24T06:48:33.876Z,18.98
2018-01-24T06:51:02.063Z,22.48
2018-01-24T06:53:30.090Z,21.05
2018-01-24T06:55:58.952Z,20.37
2018-01-24T06:58:26.893Z,22.42
2018-01-24T07:00:54.836Z,22.10
2018-01-24T07:03:22.922Z,25.00
2018-01-24T07:05:50.852Z,19.27
2018-01-24T07:08:18.898Z,22.92
2018-01-24T07:10:46.861Z,12.35
2018-01-24T07:13:14.877Z,19.50
2018-01-24T07:15:43.097Z,17.05
2018-01-24T07:18:11.282Z,13.40
2018-01-24T07:20:39.261Z,11.60
2018-01-24T07:23:07.457Z,11.75
2018-01-24T07:25:35.476Z,11.48
2018-01-24T07:28:03.583Z,12.93
2018-01-24T07:30:31.606Z,14.82
2018-01-24T07:32:59.730Z,11.12
2018-01-24T07:35:27.719Z,11.88
2018-01-24T07:37:55.787Z,12.27
2018-01-24T07:40:23.720Z,14.52
2018-01-24T07:42:51.810Z,16.37
2018-01-24T07:45:19.857Z,14.30
2018-01-24T07:47:48.129Z,16.10
2018-01-24T07:50:16.192Z,12.77
2018-01-24T07:52:44.497Z,14.38
2018-01-24T07:55:12.881Z,14.87
2018-01-24T07:57:41.266Z,16.00
2018-01-24T08:00:09.479Z,16.52
2018-01-24T08:02:37.719Z,19.45
2018-01-24T08:05:05.861Z,13.98
2018-01-24T08:07:34.047Z,15.13
2018-01-24T08:10:02.141Z,17.20
2018-01-24T08:12:30.281Z,15.73
2018-01-24T08:14:58.277Z,13.35
2018-01-24T08:17:26.374Z,13.00
2018-01-24T08:19:54.498Z,12.77
2018-01-24T08:22:22.600Z,9.57
2018-01-24T08:24:50.655Z,11.55
2018-01-24T08:27:18.677Z,10.98
2018-01-24T08:29:46.662Z,9.00
2018-01-24T08:32:14.762Z,10.02
2018-01-24T08:34:42.762Z,8.00
2018-01-24T08:37:10.822Z,10.48
2018-01-24T08:39:38.794Z,8.10
2018-01-24T08:42:06.854Z,9.95
2018-01-24T08:44:34.852Z,9.05
2018-01-24T08:47:02.897Z,11.27
2018-01-24T08:49:30.916Z,10.80
2018-01-24T08:51:58.981Z,10.80
2018-01-24T08:54:26.996Z,9.02
2018-01-24T08:56:55.060Z,11.20
2018-01-24T08:59:23.139Z,9.55
2018-01-24T09:01:51.181Z,10.45
2018-01-24T09:04:19.288Z,11.57
2018-01-24T09:06:47.312Z,11.57
2018-01-24T09:09:15.562Z,8.50
2018-01-24T09:11:43.682Z,13.10
2018-01-24T09:14:11.791Z,13.07
2018-01-24T09:16:39.974Z,10.43
2018-01-24T09:19:08.209Z,8.75
2018-01-24T09:21:36.613Z,10.00
2018-01-24T09:24:04.870Z,10.48
2018-01-24T09:26:33.518Z,10.52
2018-01-24T09:29:01.732Z,9.98
2018-01-24T09:31:29.855Z,14.63
2018-01-24T09:33:57.982Z,7.70
2018-01-24T09:36:26.195Z,7.03
2018-01-24T09:38:54.382Z,17.05
2018-01-24T09:41:22.695Z,13.10
2018-01-24T09:43:50.869Z,12.35
2018-01-24T09:46:19.086Z,9.60
2018-01-24T09:48:47.217Z,9.73
2018-01-24T09:51:15.275Z,9.35
2018-01-24T09:53:43.373Z,10.15
2018-01-24T09:56:11.379Z,13.15
2018-01-24T09:58:39.567Z,8.98
2018-01-24T10:01:07.590Z,11.00
2018-01-24T10:03:35.583Z,6.65
2018-01-24T10:06:03.498Z,12.98
2018-01-24T10:08:31.698Z,9.55
2018-01-24T10:10:59.726Z,12.07
2018-01-24T10:13:28.806Z,8.95
2018-01-24T10:15:56.876Z,12.43
2018-01-24T10:18:25.032Z,7.87
2018-01-24T10:20:53.032Z,8.38
2018-01-24T10:23:21.072Z,13.25
2018-01-24T10:25:49.066Z,7.60
2018-01-24T10:28:17.126Z,8.95
2018-01-24T10:30:45.228Z,9.98
2018-01-24T10:33:13.345Z,9.68
2018-01-24T10:35:41.299Z,9.80
2018-01-24T10:38:09.419Z,6.93
2018-01-24T10:40:37.494Z,12.30
2018-01-24T10:43:05.615Z,16.42
2018-01-24T10:45:33.558Z,8.85
2018-01-24T10:48:01.681Z,14.18
2018-01-24T10:50:29.719Z,8.75
2018-01-24T10:52:57.889Z,5.22
2018-01-24T10:55:25.940Z,7.85
2018-01-24T10:57:54.020Z,7.90
2018-01-24T11:00:21.993Z,6.90
2018-01-24T11:02:50.078Z,8.75
2018-01-24T11:05:18.077Z,6.60
2018-01-24T11:07:46.157Z,7.35
2018-01-24T11:10:14.177Z,10.60
2018-01-24T11:12:42.998Z,6.37
2018-01-24T11:15:11.010Z,5.45
2018-01-24T11:17:39.150Z,9.50
2018-01-24T11:20:07.330Z,5.03
2018-01-24T11:22:35.337Z,8.02
2018-01-24T11:25:03.498Z,4.70
2018-01-24T11:27:31.504Z,4.72
2018-01-24T11:29:59.570Z,6.00
2018-01-24T11:32:27.587Z,4.32
2018-01-24T11:34:55.654Z,4.85
2018-01-24T11:37:23.580Z,7.70
2018-01-24T11:39:51.718Z,6.55
2018-01-24T11:42:19.801Z,8.70
2018-01-24T11:44:47.966Z,9.55
2018-01-24T11:47:16.036Z,5.07
2018-01-24T11:49:44.012Z,4.60
2018-01-24T11:52:12.236Z,5.90
2018-01-24T11:54:40.197Z,7.70
2018-01-24T11:57:08.754Z,9.13
2018-01-24T11:59:36.934Z,8.25
2018-01-24T12:02:05.082Z,8.23
2018-01-24T12:04:33.085Z,7.65
2018-01-24T12:07:01.239Z,6.60
2018-01-24T12:09:29.425Z,14.00
2018-01-24T12:11:57.426Z,6.73
2018-01-24T12:14:25.426Z,5.40
2018-01-24T12:16:53.525Z,5.13
2018-01-24T12:19:21.703Z,9.00
2018-01-24T12:21:49.707Z,5.32
2018-01-24T12:24:17.846Z,9.45
2018-01-24T12:26:45.875Z,8.88
2018-01-24T12:29:13.876Z,11.25
2018-01-24T12:31:41.901Z,5.55
2018-01-24T12:34:10.160Z,5.57
2018-01-24T12:36:38.267Z,5.30
2018-01-24T12:39:06.454Z,4.90
2018-01-24T12:41:34.546Z,8.00
2018-01-24T12:44:02.749Z,5.37
2018-01-24T12:46:30.943Z,7.18
2018-01-24T12:48:59.084Z,4.05
2018-01-24T12:51:27.271Z,7.15
2018-01-24T12:53:55.400Z,8.70
2018-01-24T12:56:23.555Z,7.57
2018-01-24T12:58:51.622Z,7.18
2018-01-24T13:01:19.721Z,5.43
2018-01-24T13:03:47.728Z,8.00
2018-01-24T13:06:15.708Z,7.22
2018-01-24T13:08:43.629Z,8.48
2018-01-24T13:11:11.568Z,4.82
2018-01-24T13:13:39.649Z,7.22
2018-01-24T13:16:07.628Z,5.55
2018-01-24T13:18:35.589Z,6.10
2018-01-24T13:21:03.549Z,4.97
2018-01-24T13:23:31.510Z,6.70
2018-01-24T13:25:59.518Z,4.97
2018-01-24T13:28:27.422Z,4.60
2018-01-24T13:30:55.419Z,5.40
2018-01-24T13:33:23.607Z,5.28
2018-01-24T13:35:51.646Z,5.07
2018-01-24T13:38:19.642Z,3.78
2018-01-24T13:40:47.662Z,6.75
2018-01-24T13:43:15.549Z,5.87
2018-01-24T13:45:43.582Z,7.70
2018-01-24T13:48:11.590Z,3.55
2018-01-24T13:50:39.541Z,5.00
2018-01-24T13:53:07.549Z,7.90
2018-01-24T13:55:35.585Z,7.97
2018-01-24T13:58:03.594Z,4.45
2018-01-24T14:00:31.575Z,7.25
2018-01-24T14:02:59.575Z,12.15
2018-01-24T14:05:27.555Z,22.58
2018-01-24T14:07:55.512Z,15.80
2018-01-24T14:10:23.481Z,11.73
2018-01-24T14:12:51.420Z,9.35
2018-01-24T14:15:19.401Z,13.10
2018-01-24T14:17:47.361Z,11.25
2018-01-24T14:20:15.329Z,8.93
2018-01-24T14:22:43.261Z,9.15
2018-01-24T14:25:11.242Z,8.02
2018-01-24T14:27:39.242Z,11.10
2018-01-24T14:30:07.234Z,12.60
2018-01-24T14:32:35.246Z,12.95
2018-01-24T14:35:03.236Z,10.70
2018-01-24T14:37:31.176Z,8.80
2018-01-24T14:39:59.178Z,12.25
2018-01-24T14:42:27.085Z,10.63
2018-01-24T14:44:55.225Z,8.25
2018-01-24T14:47:23.348Z,17.60
2018-01-24T14:49:51.387Z,13.13
2018-01-24T14:52:19.315Z,10.00
2018-01-24T14:54:47.315Z,13.10
2018-01-24T14:57:15.263Z,9.38
2018-01-24T14:59:43.222Z,7.87
2018-01-24T15:02:11.143Z,11.73
2018-01-24T15:04:39.166Z,8.95
2018-01-24T15:07:07.225Z,6.97
2018-01-24T15:09:35.375Z,10.15
2018-01-24T15:12:04.151Z,6.62
2018-01-24T15:14:32.139Z,13.52
2018-01-24T15:17:00.306Z,8.07
2018-01-24T15:19:28.287Z,12.77
2018-01-24T15:21:56.306Z,7.32
2018-01-24T15:24:24.334Z,8.88
2018-01-24T15:26:52.380Z,7.78
2018-01-24T15:29:20.386Z,9.48
2018-01-24T15:31:48.372Z,10.50
2018-01-24T15:34:16.363Z,10.75
2018-01-24T15:36:44.376Z,8.82
2018-01-24T15:39:12.366Z,15.38
2018-01-24T15:41:40.425Z,8.93
2018-01-24T15:44:08.416Z,14.00
2018-01-24T15:46:37.581Z,11.65
2018-01-24T15:49:05.738Z,12.40
2018-01-24T15:51:33.899Z,10.13
2018-01-24T15:54:02.063Z,9.48
2018-01-24T15:56:30.145Z,11.00
2018-01-24T15:58:58.241Z,15.15
2018-01-24T16:01:26.319Z,21.12
2018-01-24T16:03:54.319Z,10.70
2018-01-24T16:06:22.396Z,9.23
2018-01-24T16:08:50.343Z,9.10
2018-01-24T16:11:18.394Z,15.48
2018-01-24T16:13:46.375Z,12.13
2018-01-24T16:16:14.534Z,14.13
2018-01-24T16:18:42.594Z,15.60
2018-01-24T16:21:10.618Z,12.65
2018-01-24T16:23:38.578Z,11.90
2018-01-24T16:26:06.566Z,23.20
2018-01-24T16:28:34.718Z,15.02
2018-01-24T16:31:02.800Z,22.02
2018-01-24T16:33:30.731Z,16.55
2018-01-24T16:35:58.760Z,19.20
2018-01-24T16:38:26.995Z,18.40
2018-01-24T16:40:55.101Z,19.42
2018-01-24T16:43:23.108Z,21.40
2018-01-24T16:45:51.232Z,17.85
2018-01-24T16:48:19.253Z,17.33
2018-01-24T16:50:47.218Z,19.65
2018-01-24T16:53:15.274Z,21.60
2018-01-24T16:55:43.317Z,22.25
2018-01-24T16:58:11.337Z,17.20
2018-01-24T17:00:39.325Z,14.55
2018-01-24T17:03:07.566Z,15.65
2018-01-24T17:05:35.796Z,14.73
2018-01-24T17:08:03.808Z,12.60
2018-01-24T17:10:31.949Z,14.27
2018-01-24T17:13:00.031Z,19.10
2018-01-24T17:15:28.856Z,17.08
2018-01-24T17:17:56.797Z,15.55
2018-01-24T17:20:24.851Z,20.27
2018-01-24T17:22:52.851Z,18.12
2018-01-24T17:25:20.833Z,15.05
2018-01-24T17:27:48.873Z,16.77
2018-01-24T17:30:16.788Z,16.85
2018-01-24T17:32:44.804Z,18.27
2018-01-24T17:35:12.755Z,14.38
2018-01-24T17:37:40.746Z,14.05
2018-01-24T17:40:08.757Z,14.00
2018-01-24T17:42:36.781Z,16.55
2018-01-24T17:45:05.008Z,18.02
2018-01-24T17:47:33.272Z,21.58
2018-01-24T17:50:01.293Z,17.60
2018-01-24T17:52:29.607Z,21.48
2018-01-24T17:54:57.618Z,19.08
2018-01-24T17:57:25.682Z,18.58
2018-01-24T17:59:53.656Z,21.98
2018-01-24T18:02:21.636Z,22.27
2018-01-24T18:04:49.665Z,18.85
2018-01-24T18:07:17.779Z,24.48
2018-01-24T18:09:45.792Z,18.20
2018-01-24T18:12:13.934Z,26.75
2018-01-24T18:14:41.905Z,23.00
2018-01-24T18:17:09.977Z,27.13
2018-01-24T18:19:37.964Z,24.08
2018-01-24T18:22:06.006Z,25.27
2018-01-24T18:24:34.075Z,27.40
2018-01-24T18:27:02.140Z,28.33
2018-01-24T18:29:30.119Z,21.20
2018-01-24T18:31:58.078Z,21.33
2018-01-24T18:34:26.027Z,28.05
2018-01-24T18:36:54.171Z,37.53
2018-01-24T18:39:22.150Z,27.65
2018-01-24T18:41:50.250Z,30.62
2018-01-24T18:44:18.252Z,25.23
2018-01-24T18:46:46.351Z,23.58
2018-01-24T18:49:14.351Z,20.20
2018-01-24T18:51:42.432Z,20.33
2018-01-24T18:54:10.433Z,23.73
2018-01-24T18:56:38.630Z,26.25
2018-01-24T18:59:06.683Z,18.48
2018-01-24T19:01:34.984Z,17.80
2018-01-24T19:04:03.017Z,19.85
2018-01-24T19:06:31.097Z,18.17
2018-01-24T19:08:59.185Z,25.05
2018-01-24T19:11:27.255Z,25.70
2018-01-24T19:13:55.290Z,22.92
2018-01-24T19:16:23.396Z,25.17
2018-01-24T19:18:51.438Z,22.00
2018-01-24T19:21:19.561Z,25.73
2018-01-24T19:23:47.661Z,27.77
2018-01-24T19:26:15.690Z,30.77
2018-01-24T19:28:43.815Z,33.63
2018-01-24T19:31:11.794Z,38.10
2018-01-24T19:33:39.967Z,29.35
2018-01-24T19:36:07.898Z,24.15
2018-01-24T19:38:35.997Z,28.55
2018-01-24T19:41:03.995Z,22.10
2018-01-24T19:43:32.211Z,25.23
2018-01-24T19:46:00.147Z,22.65
2018-01-24T19:48:28.249Z,25.08
2018-01-24T19:50:56.289Z,24.77
2018-01-24T19:53:24.409Z,24.20
2018-01-24T19:55:52.476Z,26.15
2018-01-24T19:58:20.652Z,25.08
2018-01-24T20:00:48.670Z,27.80
2018-01-24T20:03:16.850Z,31.02
2018-01-24T20:05:44.918Z,35.25
2018-01-24T20:08:13.170Z,33.05
2018-01-24T20:10:41.189Z,31.27
2018-01-24T20:13:09.219Z,34.78
2018-01-24T20:15:37.199Z,36.83
2018-01-24T20:18:05.404Z,32.13
2018-01-24T20:20:33.400Z,33.00
2018-01-24T20:23:01.399Z,33.47
2018-01-24T20:25:29.503Z,32.25
2018-01-24T20:27:57.583Z,29.58
2018-01-24T20:30:25.623Z,37.03
2018-01-24T20:32:53.702Z,33.92
2018-01-24T20:35:21.733Z,41.92
2018-01-24T20:37:49.895Z,29.80
2018-01-24T20:40:17.875Z,25.77
2018-01-24T20:42:45.995Z,29.63
2018-01-24T20:45:14.008Z,26.33
2018-01-24T20:47:42.077Z,28.67
2018-01-24T20:50:10.138Z,27.52
2018-01-24T20:52:38.318Z,33.67
2018-01-24T20:55:06.307Z,24.55
2018-01-24T20:57:34.382Z,24.60
2018-01-24T21:00:02.344Z,28.40
2018-01-24T21:02:30.316Z,24.67
2018-01-24T21:04:58.366Z,26.58
2018-01-24T21:07:26.404Z,22.13
2018-01-24T21:09:54.439Z,23.80
2018-01-24T21:12:22.485Z,29.45
2018-01-24T21:14:50.558Z,31.90
2018-01-24T21:17:18.699Z,26.83
2018-01-24T21:19:46.959Z,29.95
2018-01-24T21:22:14.974Z,26.83
2018-01-24T21:24:42.995Z,22.60
2018-01-24T21:27:10.994Z,22.95
2018-01-24T21:29:39.096Z,22.17
2018-01-24T21:32:07.060Z,19.92
2018-01-24T21:34:35.094Z,23.75
2018-01-24T21:37:03.099Z,21.08
2018-01-24T21:39:31.235Z,21.33
2018-01-24T21:41:59.214Z,24.50
2018-01-24T21:44:27.297Z,24.48
2018-01-24T21:46:55.442Z,21.65
2018-01-24T21:49:23.433Z,24.33
2018-01-24T21:51:51.364Z,22.05
2018-01-24T21:54:19.544Z,29.52
2018-01-24T21:56:47.564Z,23.90
2018-01-24T21:59:15.605Z,21.67
2018-01-24T22:01:43.624Z,20.27
2018-01-24T22:04:11.660Z,21.85
2018-01-24T22:06:39.607Z,21.67
2018-01-24T22:09:07.660Z,20.70
2018-01-24T22:11:35.706Z,21.77
2018-01-24T22:14:03.754Z,19.37
2018-01-24T22:16:31.758Z,20.55
2018-01-24T22:18:59.908Z,20.58
2018-01-24T22:21:28.247Z,20.80
2018-01-24T22:23:56.347Z,17.75
2018-01-24T22:26:24.391Z,23.10
2018-01-24T22:28:52.450Z,24.95
2018-01-24T22:31:20.667Z,23.00
2018-01-24T22:33:48.888Z,23.27
2018-01-24T22:36:16.900Z,20.85
2018-01-24T22:38:44.993Z,19.52
2018-01-24T22:41:13.032Z,21.08
2018-01-24T22:43:41.233Z,22.00
2018-01-24T22:46:09.232Z,25.12
2018-01-24T22:48:37.311Z,19.83
2018-01-24T22:51:05.372Z,17.67
2018-01-24T22:53:33.506Z,18.33
2018-01-24T22:56:01.485Z,19.98
2018-01-24T22:58:29.718Z,18.67
2018-01-24T23:00:57.798Z,19.87
2018-01-24T23:03:25.821Z,20.67
2018-01-24T23:05:53.789Z,17.80
2018-01-24T23:08:21.815Z,18.87
2018-01-24T23:10:49.840Z,17.35
2018-01-24T23:13:18.135Z,15.85
2018-01-24T23:15:46.310Z,17.65
2018-01-24T23:18:14.526Z,16.25
2018-01-24T23:20:42.716Z,18.58
2018-01-24T23:23:10.997Z,15.15
2018-01-24T23:25:38.999Z,14.52
2018-01-24T23:28:07.194Z,15.82
2018-01-24T23:30:35.291Z,14.90
2018-01-24T23:33:03.420Z,18.10
2018-01-24T23:35:31.572Z,21.20
2018-01-24T23:37:59.668Z,15.05
2018-01-24T23:40:28.267Z,15.50
2018-01-24T23:42:56.353Z,21.87
2018-01-24T23:45:24.654Z,17.62
2018-01-24T23:47:52.861Z,19.37
2018-01-24T23:50:21.037Z,17.08
2018-01-24T23:52:49.132Z,26.35
2018-01-24T23:55:17.430Z,14.52
2018-01-24T23:57:45.819Z,13.95
